Time;durP1;ratioP1;P1;durP2;ratioP2;P2;SDS_P1;SDS_P2;PMS_P1;PMS_P2;Temp;Humidity;BMP_temperature;BMP_pressure;BME280_temperature;BME280_humidity;BME280_pressure;Samples;Min_cycle;Max_cycle;Signal;HPM_P1;HPM_P2
2021/07/17 00:00:12;;;;;;;22.30;18.17;;;;;;;22.24;73.28;100874.75;4903488;28;98033;-72
2021/07/17 00:02:39;;;;;;;18.98;16.40;;;;;;;22.29;73.39;100877.31;4900864;28;97778;-72
2021/07/17 00:05:13;;;;;;;22.30;16.90;;;;;;;22.22;73.69;100877.03;4900237;28;126585;-71
2021/07/17 00:07:39;;;;;;;21.55;17.52;;;;;;;22.35;73.69;100878.69;4902232;28;97952;-65
2021/07/17 00:10:36;;;;;;;24.45;17.33;;;;;;;22.24;73.91;100866.50;4902297;28;98453;-72
2021/07/17 00:13:02;;;;;;;22.45;17.05;;;;;;;22.31;73.56;100866.78;4899951;28;108231;-72
2021/07/17 00:15:28;;;;;;;20.45;16.23;;;;;;;22.27;73.69;100876.84;4902486;28;98255;-72
2021/07/17 00:17:54;;;;;;;21.95;17.35;;;;;;;22.24;73.71;100877.50;4902608;28;113557;-65
2021/07/17 00:20:21;;;;;;;23.50;16.92;;;;;;;22.20;73.69;100876.56;4901237;28;127379;-65
2021/07/17 00:22:47;;;;;;;20.80;16.13;;;;;;;22.20;73.91;100882.84;4901531;28;98543;-65
2021/07/17 00:25:16;;;;;;;22.80;16.55;;;;;;;22.21;73.74;100880.94;4899078;28;126663;-65
2021/07/17 00:27:43;;;;;;;19.95;16.23;;;;;;;22.19;73.65;100878.50;4901441;28;97914;-72
2021/07/17 00:30:09;;;;;;;21.55;16.75;;;;;;;22.04;74.06;100879.88;4884361;28;98535;-72
2021/07/17 00:32:36;;;;;;;20.15;15.75;;;;;;;22.07;74.18;100889.41;4902196;28;119443;-65
2021/07/17 00:35:02;;;;;;;22.05;15.88;;;;;;;22.00;73.96;100889.13;4901467;28;127532;-72
2021/07/17 00:37:28;;;;;;;21.10;16.08;;;;;;;22.00;74.47;100881.69;4903174;28;98018;-72
2021/07/17 00:39:54;;;;;;;21.75;15.85;;;;;;;22.03;74.39;100872.00;4901896;28;99538;-65
2021/07/17 00:42:20;;;;;;;23.90;17.00;;;;;;;21.99;74.34;100865.56;4899348;28;127607;-72
2021/07/17 00:44:46;;;;;;;21.98;16.52;;;;;;;21.98;74.71;100866.72;4901764;28;127111;-72
2021/07/17 00:47:16;;;;;;;19.35;16.20;;;;;;;21.99;74.27;100862.81;4905518;28;109412;-72
2021/07/17 00:49:42;;;;;;;23.05;16.55;;;;;;;21.97;74.53;100871.41;4884650;28;98161;-72
2021/07/17 00:52:09;;;;;;;21.55;16.42;;;;;;;22.05;74.34;100875.22;4903558;28;128372;-65
2021/07/17 00:54:35;;;;;;;22.48;17.60;;;;;;;21.71;75.07;100882.53;4902927;28;98565;-72
2021/07/17 00:57:02;;;;;;;21.60;16.98;;;;;;;21.81;74.68;100882.16;4904701;28;97899;-65
2021/07/17 00:59:30;;;;;;;20.52;17.25;;;;;;;21.88;74.53;100883.56;4903764;28;118187;-65
2021/07/17 01:01:56;;;;;;;22.85;17.20;;;;;;;21.95;74.96;100879.16;4871257;28;110051;-72
2021/07/17 01:04:22;;;;;;;22.30;18.40;;;;;;;21.70;75.98;100880.16;4886590;28;126157;-71
2021/07/17 01:06:48;;;;;;;24.55;19.02;;;;;;;21.70;78.10;100886.44;4905488;28;102281;-70
2021/07/17 01:09:14;;;;;;;28.65;19.77;;;;;;;21.62;77.95;100868.09;4902804;28;128330;-65
2021/07/17 01:11:41;;;;;;;25.20;20.45;;;;;;;21.61;79.28;100871.94;4912986;28;112143;-65
2021/07/17 01:14:07;;;;;;;27.27;20.77;;;;;;;21.61;79.53;100871.16;4905602;28;116283;-64
2021/07/17 01:16:33;;;;;;;26.50;20.50;;;;;;;21.51;79.47;100873.16;4905581;28;97905;-65
2021/07/17 01:18:59;;;;;;;25.20;20.00;;;;;;;21.53;78.94;100870.84;4903404;28;98770;-65
2021/07/17 01:21:25;;;;;;;27.95;22.10;;;;;;;21.45;79.18;100879.94;4902517;28;127669;-65
2021/07/17 01:23:51;;;;;;;26.95;19.88;;;;;;;21.59;79.31;100873.44;4898943;28;126019;-64
2021/07/17 01:26:17;;;;;;;30.30;20.75;;;;;;;21.43;79.61;100871.25;4886353;28;113207;-65
2021/07/17 01:28:43;;;;;;;24.55;20.27;;;;;;;21.35;80.01;100863.88;4903096;28;103519;-65
2021/07/17 01:31:09;;;;;;;25.23;20.27;;;;;;;21.38;79.47;100870.63;4904816;28;128396;-64
2021/07/17 01:33:35;;;;;;;27.13;19.70;;;;;;;21.36;79.68;100870.97;4905037;28;98093;-65
2021/07/17 01:36:01;;;;;;;28.38;20.88;;;;;;;21.44;79.90;100858.34;4904051;28;114725;-65
2021/07/17 01:38:28;;;;;;;28.13;20.23;;;;;;;21.42;79.88;100855.94;4903136;28;114579;-71
2021/07/17 01:40:54;;;;;;;31.30;20.92;;;;;;;21.33;80.37;100860.66;4905113;28;127317;-65
2021/07/17 01:43:20;;;;;;;26.48;20.30;;;;;;;21.23;79.76;100848.09;4903712;28;98077;-64
2021/07/17 01:45:46;;;;;;;25.20;21.33;;;;;;;21.16;80.72;100852.50;4903503;28;98036;-71
2021/07/17 01:48:13;;;;;;;31.33;20.38;;;;;;;21.15;81.01;100850.88;4904312;28;126543;-65
2021/07/17 01:50:40;;;;;;;27.17;20.55;;;;;;;21.27;81.03;100848.25;4904824;28;98897;-64
2021/07/17 01:53:08;;;;;;;27.17;20.63;;;;;;;21.30;80.82;100847.59;4905406;28;103737;-65
2021/07/17 01:55:34;;;;;;;29.42;22.63;;;;;;;21.18;81.11;100852.94;4904372;28;104704;-71
2021/07/17 01:58:00;;;;;;;30.52;22.30;;;;;;;21.29;81.02;100856.94;4904639;28;98506;-65
2021/07/17 02:00:26;;;;;;;29.02;21.73;;;;;;;21.38;80.92;100860.50;4869459;28;126717;-71
2021/07/17 02:02:53;;;;;;;27.92;20.67;;;;;;;21.30;81.20;100862.09;4918805;28;97983;-72
2021/07/17 02:05:19;;;;;;;30.40;21.02;;;;;;;21.28;81.64;100867.09;4904898;28;98877;-70
2021/07/17 02:07:46;;;;;;;34.67;22.52;;;;;;;21.29;82.58;100855.00;4904333;28;98738;-64
2021/07/17 02:10:18;;;;;;;29.15;22.02;;;;;;;21.31;82.82;100865.66;4869291;28;98563;-65
2021/07/17 02:12:56;;;;;;;;;;;;;;;21.22;83.08;100857.47;4903914;28;118987;-71
2021/07/17 02:15:22;;;;;;;27.65;21.58;;;;;;;21.10;83.29;100854.59;4905472;28;97942;-65
2021/07/17 02:17:49;;;;;;;27.30;21.27;;;;;;;21.22;83.91;100852.00;4904611;28;98497;-71
2021/07/17 02:20:15;;;;;;;24.45;20.13;;;;;;;20.94;83.73;100848.06;4869989;28;102946;-71
2021/07/17 02:22:41;;;;;;;21.92;18.52;;;;;;;20.97;83.56;100844.66;4885632;28;126754;-71
2021/07/17 02:25:08;;;;;;;20.48;17.58;;;;;;;21.15;83.97;100823.47;4902001;28;110679;-64
2021/07/17 02:27:34;;;;;;;19.98;16.65;;;;;;;21.23;83.66;100817.16;4903624;28;113588;-65
2021/07/17 02:30:00;;;;;;;18.95;15.85;;;;;;;21.19;83.58;100817.00;4903749;28;126161;-65
2021/07/17 02:32:26;;;;;;;19.63;16.80;;;;;;;21.18;83.35;100822.81;4903000;28;126416;-72
2021/07/17 02:34:53;;;;;;;18.55;16.38;;;;;;;21.19;83.33;100824.44;4903978;28;113798;-70
2021/07/17 02:37:20;;;;;;;18.50;15.80;;;;;;;21.21;83.23;100830.38;4873601;28;106160;-72
2021/07/17 02:39:46;;;;;;;18.80;16.90;;;;;;;21.21;83.28;100830.38;4870981;28;97882;-65
2021/07/17 02:42:12;;;;;;;18.23;16.10;;;;;;;21.14;83.37;100830.88;4901505;28;127059;-65
2021/07/17 02:44:38;;;;;;;17.05;15.35;;;;;;;21.23;83.42;100828.13;4903452;28;113619;-72
2021/07/17 02:47:04;;;;;;;17.00;15.23;;;;;;;21.18;83.16;100831.03;4868095;28;123251;-65
2021/07/17 02:49:31;;;;;;;16.95;14.10;;;;;;;21.24;83.16;100837.94;4901940;28;118868;-65
2021/07/17 02:51:57;;;;;;;17.15;15.02;;;;;;;20.99;83.78;100835.00;4904204;28;99527;-65
2021/07/17 02:54:23;;;;;;;13.50;11.30;;;;;;;21.04;82.72;100839.47;4902719;28;103141;-65
2021/07/17 02:56:49;;;;;;;12.55;11.25;;;;;;;21.01;82.90;100842.88;4902217;28;126800;-72
2021/07/17 02:59:15;;;;;;;11.88;10.68;;;;;;;20.97;83.34;100844.66;4901345;28;126645;-71
2021/07/17 03:01:42;;;;;;;11.27;10.15;;;;;;;21.06;83.00;100851.72;4902900;28;126488;-65
2021/07/17 03:04:08;;;;;;;11.88;10.07;;;;;;;21.05;82.83;100852.03;4903183;28;113936;-71
2021/07/17 03:06:34;;;;;;;10.70;9.60;;;;;;;20.92;82.55;100853.88;4901383;28;128230;-71
2021/07/17 03:09:03;;;;;;;12.00;9.90;;;;;;;20.95;82.95;100860.66;4903209;28;127608;-71
2021/07/17 03:11:32;;;;;;;11.43;9.82;;;;;;;20.93;82.90;100858.22;4903898;28;97980;-72
2021/07/17 03:14:00;;;;;;;11.70;10.50;;;;;;;20.89;82.40;100860.00;4885849;28;97871;-72
2021/07/17 03:16:26;;;;;;;12.27;10.45;;;;;;;20.96;82.86;100857.56;4902532;28;98100;-65
2021/07/17 03:18:53;;;;;;;11.68;10.48;;;;;;;20.95;82.55;100866.91;4901048;28;102006;-73
2021/07/17 03:21:19;;;;;;;12.63;11.25;;;;;;;20.95;82.88;100864.19;4903032;28;125975;-65
2021/07/17 03:23:46;;;;;;;11.98;10.77;;;;;;;20.97;82.53;100867.38;4903173;28;108730;-65
2021/07/17 03:26:12;;;;;;;12.13;10.82;;;;;;;21.01;82.62;100860.13;4901949;28;108280;-72
2021/07/17 03:28:38;;;;;;;14.57;11.77;;;;;;;20.97;82.81;100861.09;4902268;28;114792;-65
2021/07/17 03:31:04;;;;;;;16.63;13.35;;;;;;;20.87;82.58;100855.97;4901982;28;127330;-65
2021/07/17 03:33:30;;;;;;;14.77;12.38;;;;;;;20.97;83.02;100867.38;4881522;28;111941;-72
2021/07/17 03:35:57;;;;;;;14.57;12.90;;;;;;;21.02;83.13;100866.41;4904692;28;127419;-65
2021/07/17 03:38:24;;;;;;;15.60;13.57;;;;;;;20.94;82.76;100859.81;4901414;28;98990;-65
2021/07/17 03:40:50;;;;;;;15.68;13.65;;;;;;;20.87;82.73;100861.44;4903217;28;103640;-65
2021/07/17 03:43:16;;;;;;;15.10;13.43;;;;;;;20.94;83.20;100865.28;4901193;28;113947;-73
2021/07/17 03:45:42;;;;;;;14.82;13.35;;;;;;;20.93;82.77;100866.44;4885044;28;117880;-72
2021/07/17 03:48:08;;;;;;;16.73;13.88;;;;;;;20.98;83.01;100868.19;4901877;28;127996;-65
2021/07/17 03:50:35;;;;;;;18.63;14.52;;;;;;;20.98;83.21;100866.25;4903174;28;98149;-65
2021/07/17 03:53:01;;;;;;;16.73;14.48;;;;;;;21.01;82.99;100859.31;4903328;28;113737;-72
2021/07/17 03:55:27;;;;;;;16.85;14.73;;;;;;;20.97;83.12;100867.38;4902214;28;128085;-65
2021/07/17 03:57:53;;;;;;;20.17;14.25;;;;;;;20.98;83.12;100868.97;4900714;28;111568;-72
2021/07/17 04:00:19;;;;;;;18.13;14.75;;;;;;;20.98;82.98;100863.50;4899292;28;126125;-73
2021/07/17 04:02:45;;;;;;;18.20;15.02;;;;;;;20.99;83.08;100867.06;4902816;28;97902;-72
2021/07/17 04:05:14;;;;;;;19.20;15.95;;;;;;;21.06;83.20;100865.44;4918113;28;98141;-65
2021/07/17 04:07:40;;;;;;;19.30;16.10;;;;;;;21.10;83.16;100857.34;4915211;28;98731;-65
2021/07/17 04:10:08;;;;;;;18.73;15.98;;;;;;;21.07;83.00;100856.06;4882995;28;127520;-65
2021/07/17 04:12:34;;;;;;;18.75;16.30;;;;;;;21.09;82.72;100866.69;4887307;28;98034;-65
2021/07/17 04:15:00;;;;;;;19.58;16.17;;;;;;;20.99;82.92;100859.66;4902784;28;127750;-72
2021/07/17 04:17:26;;;;;;;20.58;16.83;;;;;;;20.99;83.22;100867.88;4917982;28;98643;-72
2021/07/17 04:19:53;;;;;;;20.45;17.08;;;;;;;20.89;83.65;100870.16;4905734;28;118143;-65
2021/07/17 04:22:19;;;;;;;22.40;17.40;;;;;;;21.01;83.48;100868.34;4904245;28;98003;-72
2021/07/17 04:24:45;;;;;;;22.77;17.15;;;;;;;20.96;83.36;100868.53;4905067;28;109368;-72
2021/07/17 04:27:11;;;;;;;24.70;18.33;;;;;;;21.03;83.70;100870.75;4905544;28;128622;-72
2021/07/17 04:29:37;;;;;;;20.33;17.20;;;;;;;20.98;83.20;100868.97;4905454;28;127520;-65
2021/07/17 04:32:04;;;;;;;21.27;17.90;;;;;;;21.11;83.51;100872.66;4906735;28;97972;-72
2021/07/17 04:34:30;;;;;;;19.80;17.30;;;;;;;21.02;83.25;100880.91;4904937;28;116284;-65
2021/07/17 04:36:56;;;;;;;21.90;17.10;;;;;;;21.01;83.09;100875.75;4906175;28;110908;-73
2021/07/17 04:39:22;;;;;;;20.55;17.23;;;;;;;21.09;83.12;100872.19;4908306;28;115646;-65
2021/07/17 04:41:48;;;;;;;26.65;17.98;;;;;;;21.09;83.11;100872.19;4906065;28;97953;-65
2021/07/17 04:44:15;;;;;;;23.55;17.85;;;;;;;21.01;83.13;100873.00;4905359;28;128507;-71
2021/07/17 04:46:41;;;;;;;23.23;17.77;;;;;;;21.05;83.46;100879.44;4906735;28;98383;-72
2021/07/17 04:49:07;;;;;;;26.05;18.55;;;;;;;21.01;83.12;100878.50;4903946;28;128285;-65
2021/07/17 04:51:33;;;;;;;23.77;17.58;;;;;;;21.01;82.94;100881.22;4905176;28;110702;-65
2021/07/17 04:53:59;;;;;;;24.17;18.85;;;;;;;20.99;83.57;100876.09;4905552;28;98946;-72
2021/07/17 04:56:25;;;;;;;24.30;18.25;;;;;;;20.95;83.13;100885.31;4905536;28;126838;-72
2021/07/17 04:58:51;;;;;;;26.00;18.40;;;;;;;20.93;83.66;100885.59;4903906;28;98225;-65
2021/07/17 05:01:18;;;;;;;23.35;18.75;;;;;;;20.96;83.04;100890.44;4905087;28;113912;-65
2021/07/17 05:03:44;;;;;;;24.42;17.65;;;;;;;21.07;83.64;100886.22;4905972;28;98051;-72
2021/07/17 05:06:10;;;;;;;22.73;17.90;;;;;;;21.10;82.85;100879.25;4904956;28;114933;-65
2021/07/17 05:08:36;;;;;;;25.35;17.95;;;;;;;21.22;82.52;100893.09;4904647;28;129123;-72
2021/07/17 05:11:03;;;;;;;21.83;17.38;;;;;;;21.29;82.07;100885.16;4903606;28;111602;-72
2021/07/17 05:13:29;;;;;;;24.73;18.35;;;;;;;21.20;81.61;100884.38;4904898;28;102517;-73
2021/07/17 05:15:55;;;;;;;22.20;17.38;;;;;;;21.27;81.85;100883.88;4905977;28;98516;-72
2021/07/17 05:18:21;;;;;;;21.20;17.95;;;;;;;21.35;81.80;100880.34;4903622;28;127700;-65
2021/07/17 05:20:47;;;;;;;22.25;17.52;;;;;;;21.36;82.06;100870.16;4905079;28;98656;-65
2021/07/17 05:23:16;;;;;;;23.10;18.05;;;;;;;21.29;82.05;100874.19;4904279;28;128814;-72
2021/07/17 05:25:42;;;;;;;23.80;18.67;;;;;;;21.25;82.04;100872.44;4903667;28;98219;-65
2021/07/17 05:28:08;;;;;;;25.42;18.45;;;;;;;21.29;82.41;100873.38;4905692;28;113536;-65
2021/07/17 05:30:34;;;;;;;22.92;17.08;;;;;;;21.38;82.38;100871.44;4904222;28;113662;-65
2021/07/17 05:33:00;;;;;;;21.98;17.75;;;;;;;21.35;82.32;100874.84;4904344;28;127814;-72
2021/07/17 05:35:28;;;;;;;25.23;18.17;;;;;;;21.44;82.20;100870.13;4905888;28;97866;-72
2021/07/17 05:37:56;;;;;;;23.35;18.30;;;;;;;21.39;82.00;100873.06;4889130;28;98006;-65
2021/07/17 05:40:22;;;;;;;23.13;17.95;;;;;;;21.43;82.22;100874.00;4886999;28;100190;-64
2021/07/17 05:42:48;;;;;;;24.05;18.85;;;;;;;21.43;82.25;100878.69;4906204;28;98125;-64
2021/07/17 05:45:14;;;;;;;24.08;19.15;;;;;;;21.27;82.40;100879.22;4904062;28;126543;-64
2021/07/17 05:47:40;;;;;;;25.02;18.83;;;;;;;21.32;82.54;100872.72;4904001;28;98075;-71
2021/07/17 05:50:07;;;;;;;25.15;19.02;;;;;;;21.35;82.58;100874.84;4902631;28;97959;-72
2021/07/17 05:52:33;;;;;;;24.77;18.90;;;;;;;21.29;82.95;100882.41;4902101;28;99103;-71
2021/07/17 05:55:00;;;;;;;23.75;18.27;;;;;;;21.37;82.99;100885.47;4901439;28;102736;-64
2021/07/17 05:57:26;;;;;;;24.63;18.23;;;;;;;21.28;82.88;100889.03;4899614;28;98012;-71
2021/07/17 05:59:52;;;;;;;24.35;18.27;;;;;;;21.29;82.43;100881.59;4902212;28;98050;-72
2021/07/17 06:02:18;;;;;;;25.08;19.02;;;;;;;21.22;82.80;100884.88;4901768;28;103775;-71
2021/07/17 06:04:45;;;;;;;25.63;19.60;;;;;;;21.30;82.75;100884.03;4899163;28;98748;-64
2021/07/17 06:07:11;;;;;;;24.50;19.02;;;;;;;21.28;83.08;100885.50;4893437;28;97923;-64
2021/07/17 06:09:40;;;;;;;24.35;18.77;;;;;;;21.35;82.95;100893.25;4901251;28;113404;-64
2021/07/17 06:12:08;;;;;;;25.40;18.98;;;;;;;21.20;82.50;100889.88;4901366;28;98095;-71
2021/07/17 06:14:43;;;;;;;25.10;19.23;;;;;;;21.28;82.82;100899.19;4902141;28;98668;-64
2021/07/17 06:17:12;;;;;;;24.42;17.55;;;;;;;21.34;82.57;100892.44;4896175;28;97896;-64
2021/07/17 06:19:41;;;;;;;23.30;19.10;;;;;;;21.18;83.11;100894.88;4901411;28;98653;-64
2021/07/17 06:22:09;;;;;;;25.48;18.65;;;;;;;21.28;83.25;100905.47;4900354;28;118220;-64
2021/07/17 06:24:35;;;;;;;26.83;19.17;;;;;;;21.33;82.47;100905.31;4900887;28;98488;-71
2021/07/17 06:27:01;;;;;;;24.00;18.23;;;;;;;21.41;82.89;100909.16;4900345;28;98342;-71
2021/07/17 06:29:27;;;;;;;26.10;18.65;;;;;;;21.33;82.53;100910.78;4900512;28;98374;-64
2021/07/17 06:31:53;;;;;;;27.83;18.95;;;;;;;21.29;82.95;100917.25;4898920;28;122457;-64
2021/07/17 06:34:20;;;;;;;24.52;18.52;;;;;;;21.28;82.46;100907.41;4881259;28;128402;-71
2021/07/17 06:36:46;;;;;;;28.90;18.85;;;;;;;21.27;82.61;100914.84;4883008;28;98024;-70
2021/07/17 06:39:12;;;;;;;26.88;18.65;;;;;;;21.20;83.39;100917.28;4901109;28;98039;-70
2021/07/17 06:41:38;;;;;;;22.75;18.02;;;;;;;21.16;83.14;100921.81;4898085;28;128099;-71
2021/07/17 06:44:04;;;;;;;21.90;18.05;;;;;;;21.30;83.14;100919.69;4899806;28;98822;-70
2021/07/17 06:46:30;;;;;;;23.60;18.38;;;;;;;21.38;82.83;100923.53;4900406;28;127248;-64
2021/07/17 06:48:57;;;;;;;20.00;17.48;;;;;;;21.44;82.40;100919.47;4882984;28;113761;-70
2021/07/17 06:51:23;;;;;;;23.95;18.42;;;;;;;21.45;82.71;100923.00;4900710;28;127668;-70
2021/07/17 06:53:49;;;;;;;23.67;18.35;;;;;;;21.38;82.27;100926.28;4901906;28;98407;-70
2021/07/17 06:56:16;;;;;;;27.65;18.73;;;;;;;21.37;82.85;100919.16;4900612;28;124732;-70
2021/07/17 06:58:42;;;;;;;25.63;18.17;;;;;;;21.44;82.47;100924.16;4901863;28;100620;-70
2021/07/17 07:01:08;;;;;;;22.65;16.50;;;;;;;21.53;82.03;100920.22;4904047;28;125722;-64
2021/07/17 07:03:34;;;;;;;19.83;14.80;;;;;;;21.56;81.17;100921.50;4900070;28;127072;-64
2021/07/17 07:06:01;;;;;;;22.88;16.55;;;;;;;21.61;81.77;100924.06;4899271;28;98224;-71
2021/07/17 07:08:27;;;;;;;21.13;15.05;;;;;;;21.72;81.09;100924.50;4899736;28;97976;-71
2021/07/17 07:10:53;;;;;;;21.08;14.18;;;;;;;21.76;81.56;100923.50;4899326;28;127902;-71
2021/07/17 07:13:19;;;;;;;20.75;14.02;;;;;;;21.59;81.29;100923.59;4897536;28;128111;-71
2021/07/17 07:15:46;;;;;;;18.65;13.10;;;;;;;21.63;81.56;100926.50;4897660;28;127798;-70
2021/07/17 07:18:13;;;;;;;16.35;12.70;;;;;;;21.58;81.12;100922.00;4902053;28;97856;-71
2021/07/17 07:20:39;;;;;;;20.92;12.52;;;;;;;21.52;81.75;100920.56;4901681;28;98505;-70
2021/07/17 07:23:05;;;;;;;14.77;11.95;;;;;;;21.38;82.00;100922.72;4900634;28;99994;-70
2021/07/17 07:25:31;;;;;;;14.05;11.88;;;;;;;21.31;81.87;100929.50;4898222;28;99036;-63
2021/07/17 07:27:57;;;;;;;15.10;11.85;;;;;;;21.24;82.61;100933.88;4900984;28;98224;-64
2021/07/17 07:30:23;;;;;;;18.48;13.15;;;;;;;21.25;82.61;100925.31;4893019;28;128041;-64
2021/07/17 07:32:50;;;;;;;16.45;13.00;;;;;;;21.27;82.65;100931.28;4886389;28;98245;-69
2021/07/17 07:35:20;;;;;;;19.38;14.48;;;;;;;21.06;82.91;100928.47;4898696;28;98221;-64
2021/07/17 07:37:47;;;;;;;19.92;15.32;;;;;;;21.04;82.98;100927.97;4884512;28;104501;-64
2021/07/17 07:40:14;;;;;;;20.85;16.92;;;;;;;21.05;83.81;100937.78;4899788;28;99030;-64
2021/07/17 07:42:40;;;;;;;22.52;15.40;;;;;;;21.08;83.79;100936.34;4883723;28;98528;-64
2021/07/17 07:45:07;;;;;;;16.90;14.23;;;;;;;21.17;83.01;100928.09;4898479;28;98241;-67
2021/07/17 07:47:33;;;;;;;15.65;12.65;;;;;;;21.30;82.27;100929.84;4899857;28;101552;-73
2021/07/17 07:49:59;;;;;;;23.85;15.60;;;;;;;21.21;82.84;100924.38;4899084;28;126803;-73
2021/07/17 07:52:25;;;;;;;21.15;16.08;;;;;;;21.30;82.85;100929.84;4899020;28;128094;-67
2021/07/17 07:54:52;;;;;;;21.17;13.98;;;;;;;21.51;81.16;100935.41;4901300;28;97835;-73
2021/07/17 07:57:18;;;;;;;19.25;14.88;;;;;;;21.53;80.93;100933.94;4899608;28;98194;-67
2021/07/17 07:59:44;;;;;;;25.33;16.73;;;;;;;21.48;82.12;100936.06;4913769;28;113120;-67
2021/07/17 08:02:10;;;;;;;24.42;16.10;;;;;;;21.58;81.68;100943.13;4897579;28;126371;-73
2021/07/17 08:04:37;;;;;;;20.00;15.55;;;;;;;21.67;80.77;100941.16;4903698;28;98302;-73
2021/07/17 08:07:04;;;;;;;24.63;16.83;;;;;;;21.73;80.86;100943.38;4881484;28;113976;-73
2021/07/17 08:09:30;;;;;;;23.35;17.52;;;;;;;21.73;82.01;100934.31;4867578;28;98270;-73
2021/07/17 08:11:56;;;;;;;25.98;18.25;;;;;;;21.74;81.21;100944.19;4881248;28;128509;-73
2021/07/17 08:14:22;;;;;;;21.15;15.38;;;;;;;21.89;79.78;100948.28;4897855;28;128102;-73
2021/07/17 08:16:48;;;;;;;22.10;16.05;;;;;;;22.03;79.63;100944.16;4898662;28;98229;-73
2021/07/17 08:19:15;;;;;;;20.27;15.43;;;;;;;22.11;78.47;100949.91;4899499;28;105416;-67
2021/07/17 08:21:41;;;;;;;25.15;17.40;;;;;;;22.22;78.20;100949.22;4865731;28;100416;-66
2021/07/17 08:24:08;;;;;;;27.80;19.98;;;;;;;21.96;80.22;100952.09;4896403;28;125690;-73
2021/07/17 08:26:34;;;;;;;28.83;18.88;;;;;;;22.18;78.37;100951.03;4899207;28;99144;-66
2021/07/17 08:29:01;;;;;;;33.30;21.27;;;;;;;22.02;79.82;100953.53;4898338;28;117766;-66
2021/07/17 08:31:27;;;;;;;32.25;21.58;;;;;;;21.76;80.40;100950.13;4896672;28;126838;-66
2021/07/17 08:33:53;;;;;;;26.35;18.17;;;;;;;22.08;78.95;100958.81;4898631;28;127392;-67
2021/07/17 08:36:19;;;;;;;30.25;22.55;;;;;;;21.90;80.67;100952.66;4900050;28;97735;-73
2021/07/17 08:38:45;;;;;;;33.63;23.13;;;;;;;21.84;80.95;100960.25;4899175;28;127809;-73
2021/07/17 08:41:11;;;;;;;32.55;22.88;;;;;;;21.88;81.00;100946.66;4900068;28;98868;-66
2021/07/17 08:43:38;;;;;;;32.55;22.98;;;;;;;21.89;80.79;100962.81;4882110;28;106573;-72
2021/07/17 08:46:04;;;;;;;37.53;24.95;;;;;;;21.88;81.27;100968.63;4899736;28;98173;-72
2021/07/17 08:48:34;;;;;;;36.15;22.35;;;;;;;21.94;80.90;100970.06;4897388;28;107445;-66
2021/07/17 08:51:00;;;;;;;28.80;20.55;;;;;;;22.01;79.41;100967.59;4899140;28;98540;-66
2021/07/17 08:53:26;;;;;;;33.92;23.73;;;;;;;21.83;80.97;100966.88;4899254;28;108902;-66
2021/07/17 08:55:54;;;;;;;33.30;23.55;;;;;;;21.91;80.65;100966.03;4899609;28;97785;-66
2021/07/17 08:58:20;;;;;;;31.95;22.42;;;;;;;21.99;79.91;100967.91;4902333;28;98395;-72
2021/07/17 09:00:47;;;;;;;35.42;24.63;;;;;;;21.92;80.34;100969.56;4898793;28;98991;-72
2021/07/17 09:03:18;;;;;;;31.58;23.38;;;;;;;22.01;80.61;100967.59;4898487;28;98048;-66
2021/07/17 09:05:46;;;;;;;32.72;22.75;;;;;;;22.04;79.87;100967.72;4902171;28;97832;-66
2021/07/17 09:08:13;;;;;;;34.53;24.38;;;;;;;21.91;80.23;100966.03;4901754;28;98607;-66
2021/07/17 09:10:43;;;;;;;40.33;25.80;;;;;;;21.82;81.37;100962.53;4902561;28;98882;-71
2021/07/17 09:13:24;;;;;;;38.72;26.15;;;;;;;21.80;81.67;100962.03;4902844;28;98006;-66
2021/07/17 09:15:59;;;;;;;35.67;24.98;;;;;;;21.75;81.57;100967.72;4884318;28;108456;-71
2021/07/17 09:18:33;;;;;;;35.63;25.40;;;;;;;21.78;81.56;100967.88;4900769;28;98503;-71
2021/07/17 09:21:07;;;;;;;39.15;24.38;;;;;;;21.90;80.80;100969.91;4912765;28;98866;-71
2021/07/17 09:23:45;;;;;;;34.85;25.45;;;;;;;21.91;81.19;100973.44;4901118;28;98767;-71
2021/07/17 09:26:30;;;;;;;38.47;25.63;;;;;;;21.97;81.54;100966.66;4901740;28;97794;-66
2021/07/17 09:29:17;;;;;;;38.22;25.50;;;;;;;22.12;81.13;100965.25;4902214;28;98715;-71
2021/07/17 09:31:48;;;;;;;38.05;25.33;;;;;;;22.19;81.20;100963.59;4895815;28;112543;-66
2021/07/17 09:34:15;;;;;;;34.08;25.38;;;;;;;22.28;80.91;100963.53;4901235;28;97981;-66
2021/07/17 09:37:02;;;;;;;39.53;27.17;;;;;;;22.20;80.32;100964.41;4901018;28;98050;-66
2021/07/17 09:39:35;;;;;;;38.20;26.35;;;;;;;22.60;79.88;100955.69;4899875;28;98841;-71
2021/07/17 09:42:13;;;;;;;34.22;25.73;;;;;;;22.85;79.41;100953.88;4901870;28;99125;-66
2021/07/17 09:44:40;;;;;;;34.08;24.83;;;;;;;23.08;78.35;100952.34;4024145;28;10000952;-66
2021/07/17 09:47:23;;;;;;;36.22;25.38;;;;;;;23.66;76.51;100942.16;4899791;28;97957;-71
2021/07/17 09:49:49;;;;;;;36.88;25.13;;;;;;;25.06;71.68;100935.97;4901103;28;98161;-71
2021/07/17 09:52:22;;;;;;;29.95;22.63;;;;;;;27.01;64.95;100948.25;4882311;28;99251;-67
2021/07/17 09:55:12;;;;;;;32.00;22.15;;;;;;;28.15;61.60;100939.03;4903450;28;98798;-72
2021/07/17 09:57:39;;;;;;;26.63;19.80;;;;;;;28.96;57.16;100945.94;4906119;28;98986;-67
2021/07/17 10:00:06;;;;;;;28.02;20.33;;;;;;;27.88;60.44;100941.84;4904146;28;119164;-72
2021/07/17 10:02:35;;;;;;;30.05;21.63;;;;;;;26.33;64.91;100942.19;4902810;28;97822;-66
2021/07/17 10:05:05;;;;;;;26.30;19.70;;;;;;;26.71;64.29;100935.06;4901506;28;98265;-71
2021/07/17 10:07:31;;;;;;;26.55;19.20;;;;;;;26.69;63.83;100931.88;4901384;28;99310;-66
2021/07/17 10:09:57;;;;;;;27.25;20.95;;;;;;;26.76;65.15;100925.66;4898877;28;115422;-66
2021/07/17 10:12:40;;;;;;;24.90;19.95;;;;;;;26.82;63.86;100922.25;4901097;28;98135;-70
2021/07/17 10:15:17;;;;;;;23.77;19.08;;;;;;;27.12;63.96;100933.47;4900899;28;99335;-66
2021/07/17 10:17:44;;;;;;;25.73;19.52;;;;;;;26.58;64.26;100934.41;4900395;28;119516;-70
2021/07/17 10:20:15;;;;;;;22.15;19.20;;;;;;;26.80;63.36;100921.00;4901218;28;98130;-66
2021/07/17 10:22:42;;;;;;;28.00;20.13;;;;;;;27.41;62.30;100926.44;4902384;28;98183;-71
2021/07/17 10:25:11;;;;;;;22.98;19.23;;;;;;;27.78;62.56;100919.50;4901243;28;98441;-71
2021/07/17 10:27:37;;;;;;;21.85;18.25;;;;;;;27.22;62.46;100920.19;4900563;28;98866;-71
2021/07/17 10:30:08;;;;;;;26.20;19.67;;;;;;;27.19;64.07;100913.44;4901156;28;115558;-66
2021/07/17 10:32:34;;;;;;;20.77;18.40;;;;;;;26.73;64.63;100905.09;4902219;28;97996;-71
2021/07/17 10:35:00;;;;;;;21.38;18.05;;;;;;;26.57;63.04;100891.38;4899281;28;126985;-71
2021/07/17 10:37:34;;;;;;;22.30;18.50;;;;;;;26.25;65.52;100890.69;4900381;28;99307;-71
2021/07/17 10:40:09;;;;;;;20.63;17.85;;;;;;;26.14;64.29;100884.97;4883269;28;98276;-71
2021/07/17 10:42:36;;;;;;;22.75;18.50;;;;;;;25.99;65.71;100901.59;4882764;28;97900;-66
2021/07/17 10:45:02;;;;;;;26.05;19.25;;;;;;;25.59;68.04;100888.84;4883523;28;98844;-70
2021/07/17 10:47:41;;;;;;;23.10;18.95;;;;;;;25.82;67.60;100886.22;4899794;28;111395;-71
2021/07/17 10:50:12;;;;;;;21.33;18.95;;;;;;;25.43;66.90;100889.66;4899926;28;106054;-70
2021/07/17 10:52:43;;;;;;;;;;;;;;;25.16;67.28;100882.28;4901661;28;99400;-65
2021/07/17 10:55:37;;;;;;;22.25;18.63;;;;;;;24.78;68.79;100885.63;4900861;28;98432;-65
2021/07/17 10:58:12;;;;;;;24.55;19.42;;;;;;;24.64;69.69;100875.81;4901390;28;98821;-70
2021/07/17 11:00:52;;;;;;;23.98;20.08;;;;;;;24.76;70.29;100868.63;4900466;28;98045;-65
2021/07/17 11:03:22;;;;;;;20.70;18.52;;;;;;;25.09;67.09;100871.88;4898909;28;104735;-70
2021/07/17 11:05:49;;;;;;;20.63;18.50;;;;;;;25.28;66.95;100876.69;4898372;28;98296;-65
2021/07/17 11:08:35;;;;;;;21.25;18.17;;;;;;;25.18;67.33;100877.22;4900450;28;99213;-65